Time;durP1;ratioP1;P1;durP2;ratioP2;P2;SDS_P1;SDS_P2;PMS_P1;PMS_P2;Temp;Humidity;BMP_temperature;BMP_pressure;BME280_temperature;BME280_humidity;BME280_pressure;Samples;Min_cycle;Max_cycle;Signal;HPM_P1;HPM_P2
2022/08/24 00:01:23;;;;;;;19.00;16.77;;;;;;;19.33;100.00;100814.14;1772629;80;21043;-77
2022/08/24 00:03:50;;;;;;;18.42;16.42;;;;;;;19.34;100.00;100818.52;1783462;79;21049;-77
2022/08/24 00:06:21;;;;;;;19.27;17.07;;;;;;;19.34;100.00;100813.66;1769841;80;21018;-76
2022/08/24 00:08:51;;;;;;;21.48;17.45;;;;;;;19.33;100.00;100814.14;1785184;80;21447;-76
2022/08/24 00:11:19;;;;;;;18.48;16.27;;;;;;;19.34;100.00;100817.64;1768804;80;21008;-77
2022/08/24 00:13:47;;;;;;;19.42;17.30;;;;;;;19.33;100.00;100815.47;1786932;80;21158;-76
2022/08/24 00:16:15;;;;;;;19.00;16.60;;;;;;;19.34;100.00;100817.19;1782435;80;21118;-77
2022/08/24 00:18:43;;;;;;;20.40;17.15;;;;;;;19.34;100.00;100814.53;1773194;80;21044;-77
2022/08/24 00:21:12;;;;;;;20.10;16.60;;;;;;;19.34;100.00;100816.31;1778133;80;21454;-76
2022/08/24 00:23:40;;;;;;;17.15;15.28;;;;;;;19.34;100.00;100815.86;1768506;80;21012;-77
2022/08/24 00:26:08;;;;;;;19.25;16.27;;;;;;;19.34;100.00;100812.33;1787202;80;21035;-76
2022/08/24 00:28:35;;;;;;;17.75;15.95;;;;;;;19.33;100.00;100814.14;1766499;80;21270;-77
2022/08/24 00:31:03;;;;;;;18.15;16.23;;;;;;;19.34;100.00;100805.68;1787296;80;21024;-76
2022/08/24 00:33:30;;;;;;;18.45;16.25;;;;;;;19.34;100.00;100808.34;1765679;80;21008;-76
2022/08/24 00:35:57;;;;;;;17.37;15.43;;;;;;;19.32;100.00;100805.80;1787516;80;21043;-76
2022/08/24 00:38:25;;;;;;;17.85;15.45;;;;;;;19.33;100.00;100805.32;1765729;80;21040;-76
2022/08/24 00:40:52;;;;;;;17.52;15.63;;;;;;;19.32;100.00;100811.12;1787388;80;21349;-76
2022/08/24 00:43:24;;;;;;;20.57;17.05;;;;;;;19.33;100.00;100810.63;1765435;80;21067;-76
2022/08/24 00:46:45;;;;;;;18.02;15.53;;;;;;;19.33;100.00;100814.14;1761633;80;21094;-76
2022/08/24 00:49:45;;;;;;;19.35;17.02;;;;;;;19.36;100.00;100811.75;1769529;80;21469;-76
2022/08/24 00:52:21;;;;;;;19.27;15.98;;;;;;;19.36;100.00;100815.26;1754756;80;21044;-76
2022/08/24 00:54:56;;;;;;;19.40;16.20;;;;;;;19.38;100.00;100820.48;1768626;80;21107;-76
2022/08/24 00:57:28;;;;;;;19.02;15.98;;;;;;;19.38;100.00;100820.00;1786493;80;21023;-76
2022/08/24 01:00:01;;;;;;;17.73;15.93;;;;;;;19.38;100.00;100818.67;1787750;80;21036;-76
2022/08/24 01:02:33;;;;;;;20.95;17.10;;;;;;;19.39;100.00;100823.02;1765343;80;21418;-76
2022/08/24 01:05:06;;;;;;;19.80;17.12;;;;;;;19.40;100.00;100819.91;1769998;80;21047;-76
2022/08/24 01:07:35;;;;;;;19.23;17.35;;;;;;;19.40;100.00;100814.59;1755442;80;21114;-76
2022/08/24 01:10:13;;;;;;;18.30;16.60;;;;;;;19.40;100.00;100815.92;1763799;81;21532;-76
2022/08/24 01:12:45;;;;;;;20.02;16.87;;;;;;;19.40;100.00;100818.58;1770050;79;20996;-76
2022/08/24 01:15:12;;;;;;;18.87;16.48;;;;;;;19.39;100.00;100815.53;1767037;81;21031;-76
2022/08/24 01:20:25;;;;;;;17.85;16.00;;;;;;;19.40;100.00;100814.59;1739316;79;21943;-76
2022/08/24 01:23:17;;;;;;;17.30;15.60;;;;;;;19.38;100.00;100817.34;1763008;81;21019;-76
2022/08/24 01:25:45;;;;;;;21.37;15.38;;;;;;;19.39;100.00;100818.19;1761715;81;21434;-77
2022/08/24 01:28:19;;;;;;;17.42;15.72;;;;;;;19.38;100.00;100815.17;1768015;81;21059;-77
2022/08/24 01:30:46;;;;;;;16.57;14.98;;;;;;;19.37;100.00;100812.12;1770391;80;21032;-78
2022/08/24 01:33:27;;;;;;;18.45;15.20;;;;;;;19.34;100.00;100810.55;1759352;81;21172;-78
2022/08/24 01:36:05;;;;;;;16.27;14.58;;;;;;;19.31;100.00;100809.39;1770359;80;20980;-78
2022/08/24 01:38:33;;;;;;;17.73;13.68;;;;;;;19.27;100.00;100809.23;1761653;80;21080;-78
2022/08/24 01:41:03;;;;;;;15.80;14.18;;;;;;;19.24;100.00;100808.60;1755932;79;21040;-77
2022/08/24 01:43:31;;;;;;;18.98;14.75;;;;;;;19.22;100.00;100813.16;1748365;79;20996;-77
2022/08/24 01:45:58;;;;;;;16.07;14.33;;;;;;;19.21;100.00;100808.33;1762983;79;21137;-77
2022/08/24 01:48:25;;;;;;;15.75;13.85;;;;;;;19.20;100.00;100807.94;1756177;81;21031;-77
2022/08/24 01:50:54;;;;;;;15.13;13.70;;;;;;;19.18;100.00;100811.19;1770237;80;21043;-78
2022/08/24 01:53:22;;;;;;;15.63;14.03;;;;;;;19.15;100.00;100810.08;1758917;80;21063;-77
2022/08/24 01:55:49;;;;;;;15.88;14.18;;;;;;;19.13;100.00;100810.16;1739567;81;21024;-77
2022/08/24 01:58:17;;;;;;;15.78;14.18;;;;;;;19.12;100.00;100803.60;1735277;81;21532;-77
2022/08/24 02:00:45;;;;;;;15.65;14.20;;;;;;;19.11;100.00;100802.76;1770279;80;21031;-77
2022/08/24 02:03:13;;;;;;;15.13;13.55;;;;;;;19.11;100.00;100808.08;1761770;80;21016;-76
2022/08/24 02:05:42;;;;;;;15.83;14.23;;;;;;;19.10;100.00;100804.20;1754160;81;21063;-77
2022/08/24 02:08:10;;;;;;;15.18;13.78;;;;;;;19.09;100.00;100801.16;1727556;82;21533;-77
2022/08/24 02:10:37;;;;;;;15.65;14.15;;;;;;;19.07;100.00;100803.08;1738630;81;21883;-77
2022/08/24 02:13:05;;;;;;;15.72;14.23;;;;;;;19.06;100.00;100801.36;1732751;81;21033;-77
2022/08/24 02:15:38;;;;;;;14.68;13.28;;;;;;;19.05;100.00;100803.66;1757732;81;21082;-77
2022/08/24 02:18:10;;;;;;;16.17;14.68;;;;;;;19.03;100.00;100799.76;1769907;80;20984;-77
2022/08/24 02:20:38;;;;;;;15.72;14.10;;;;;;;19.03;100.00;100809.53;1768946;80;21097;-77
2022/08/24 02:23:05;;;;;;;15.93;14.33;;;;;;;19.02;100.00;100806.52;1768635;80;21134;-77
2022/08/24 02:25:33;;;;;;;16.77;14.03;;;;;;;19.04;100.00;100808.57;1768783;80;21059;-77
2022/08/24 02:28:01;;;;;;;15.35;13.65;;;;;;;19.03;100.00;100810.38;1768587;80;21445;-77
2022/08/24 02:30:30;;;;;;;16.12;13.85;;;;;;;19.02;100.00;100812.67;1768960;80;21047;-77
2022/08/24 02:32:58;;;;;;;15.03;13.55;;;;;;;19.02;100.00;100814.00;1742572;80;20995;-77
2022/08/24 02:35:28;;;;;;;14.70;13.30;;;;;;;19.03;100.00;100816.17;1773157;80;21178;-77
2022/08/24 02:37:56;;;;;;;13.62;12.30;;;;;;;19.03;100.00;100817.02;1773031;80;21050;-77
2022/08/24 02:40:24;;;;;;;13.38;12.18;;;;;;;19.03;100.00;100822.34;1768628;80;21047;-76
2022/08/24 02:42:51;;;;;;;15.60;13.60;;;;;;;19.05;100.00;100823.09;1768944;80;20999;-77
2022/08/24 02:45:19;;;;;;;14.85;13.45;;;;;;;19.05;100.00;100831.55;1768518;80;21480;-77
2022/08/24 02:47:47;;;;;;;15.05;13.55;;;;;;;19.05;100.00;100828.41;1768935;80;21238;-77
2022/08/24 02:50:17;;;;;;;16.35;13.65;;;;;;;19.05;100.00;100829.73;1772628;80;20991;-79
2022/08/24 02:52:45;;;;;;;15.68;14.07;;;;;;;19.03;100.00;100835.62;1772450;80;21046;-78
2022/08/24 02:55:16;;;;;;;15.65;13.95;;;;;;;19.02;100.00;100831.75;1761432;80;21526;-78
2022/08/24 02:57:43;;;;;;;14.75;13.28;;;;;;;19.02;100.00;100838.39;1782544;80;21346;-80
2022/08/24 03:00:15;;;;;;;16.40;14.60;;;;;;;19.03;100.00;100844.07;1782253;80;21553;-79
2022/08/24 03:02:44;;;;;;;15.83;14.30;;;;;;;19.02;100.00;100838.39;1759585;80;21072;-79
2022/08/24 03:05:13;;;;;;;16.05;14.38;;;;;;;19.01;100.00;100841.53;1778011;80;21120;-80
2022/08/24 03:07:40;;;;;;;15.30;13.75;;;;;;;19.02;100.00;100838.39;1750165;80;21046;-80
2022/08/24 03:10:08;;;;;;;17.30;14.95;;;;;;;19.00;100.00;100842.47;1782616;80;21060;-81
2022/08/24 03:12:35;;;;;;;15.55;14.03;;;;;;;18.99;100.00;100844.75;1756798;80;21121;-80
2022/08/24 03:15:05;;;;;;;15.90;14.30;;;;;;;18.99;100.00;100843.43;1730551;80;21312;-79
2022/08/24 03:17:33;;;;;;;16.00;14.50;;;;;;;18.98;100.00;100843.52;1748012;80;21059;-78
2022/08/24 03:20:01;;;;;;;15.03;13.62;;;;;;;18.98;100.00;100844.84;1753789;80;21083;-78
2022/08/24 03:22:28;;;;;;;17.42;15.80;;;;;;;18.97;100.00;100851.12;1729747;81;21013;-78
2022/08/24 03:24:56;;;;;;;19.60;14.90;;;;;;;18.96;100.00;100852.08;1750746;80;21138;-78
2022/08/24 03:27:23;;;;;;;16.52;14.10;;;;;;;18.95;100.00;100851.20;1753638;80;21083;-78
2022/08/24 03:29:51;;;;;;;17.15;14.00;;;;;;;18.94;100.00;100854.34;1751736;80;22080;-78
2022/08/24 03:32:19;;;;;;;15.78;14.18;;;;;;;18.94;100.00;100859.66;1743009;80;21455;-77
2022/08/24 03:34:46;;;;;;;14.73;13.22;;;;;;;18.95;100.00;100852.53;1742699;80;21017;-77
2022/08/24 03:37:15;;;;;;;15.45;13.50;;;;;;;18.93;100.00;100853.98;1748999;80;21946;-77
2022/08/24 03:39:42;;;;;;;15.85;14.20;;;;;;;18.93;100.00;100849.99;1745521;80;21031;-77
2022/08/24 03:42:09;;;;;;;15.43;13.83;;;;;;;18.91;100.00;100853.70;1751103;80;21052;-77
2022/08/24 03:44:36;;;;;;;15.00;13.50;;;;;;;18.89;100.00;100855.11;1764220;80;21548;-77
2022/08/24 03:47:03;;;;;;;15.95;13.68;;;;;;;18.88;100.00;100856.55;1763871;80;21043;-78
2022/08/24 03:49:31;;;;;;;14.98;13.50;;;;;;;18.88;100.00;100860.54;1750150;81;21081;-78
2022/08/24 03:51:59;;;;;;;14.68;13.28;;;;;;;18.86;100.00;100867.27;1742136;80;20959;-78
2022/08/24 03:54:26;;;;;;;15.72;13.40;;;;;;;18.86;100.00;100875.72;1741145;81;21047;-77
2022/08/24 03:56:55;;;;;;;15.63;14.13;;;;;;;18.87;100.00;100877.41;1743699;80;21064;-77
2022/08/24 03:59:22;;;;;;;17.67;15.75;;;;;;;18.86;100.00;100879.22;1762398;80;21019;-77
2022/08/24 04:01:51;;;;;;;16.45;14.65;;;;;;;18.85;100.00;100878.00;1756983;80;21699;-78
2022/08/24 04:04:18;;;;;;;16.50;14.85;;;;;;;18.85;100.00;100876.67;1737956;80;21063;-77
2022/08/24 04:06:45;;;;;;;15.35;13.72;;;;;;;18.83;100.00;100876.76;1739233;81;21004;-77
2022/08/24 04:09:13;;;;;;;17.30;15.30;;;;;;;18.84;100.00;100875.80;1761908;81;21016;-77
2022/08/24 04:11:44;;;;;;;19.77;15.85;;;;;;;18.85;100.00;100876.67;1739440;81;21751;-77
2022/08/24 04:14:15;;;;;;;19.27;16.40;;;;;;;18.84;100.00;100872.30;1739359;81;26701;-78
2022/08/24 04:16:44;;;;;;;21.33;15.80;;;;;;;18.84;100.00;100872.30;1741374;80;20984;-77
2022/08/24 04:19:15;;;;;;;20.60;16.30;;;;;;;18.83;100.00;100876.76;1740704;80;21028;-77
2022/08/24 04:21:43;;;;;;;18.60;15.43;;;;;;;18.81;100.00;100877.80;1741373;81;21039;-77
2022/08/24 04:24:12;;;;;;;19.77;16.37;;;;;;;18.80;100.00;100879.62;1741522;80;21083;-78
2022/08/24 04:26:41;;;;;;;20.15;15.50;;;;;;;18.79;100.00;100877.05;1741601;80;21880;-78
2022/08/24 04:29:11;;;;;;;19.62;16.02;;;;;;;18.80;100.00;100880.09;1741508;80;20992;-77
2022/08/24 04:31:44;;;;;;;16.85;14.95;;;;;;;18.80;100.00;100879.62;1741404;80;21620;-77
2022/08/24 04:34:15;;;;;;;17.70;15.37;;;;;;;18.82;100.00;100880.86;1755999;80;21058;-78
2022/08/24 04:36:43;;;;;;;16.25;14.60;;;;;;;18.82;100.00;100886.17;1770160;80;21055;-79
2022/08/24 04:39:11;;;;;;;17.63;15.00;;;;;;;18.82;100.00;100886.17;1765757;79;21512;-80
2022/08/24 04:41:41;;;;;;;18.32;14.95;;;;;;;18.81;100.00;100883.96;1762401;80;20967;-79
2022/08/24 04:44:09;;;;;;;20.57;17.17;;;;;;;18.81;100.00;100887.95;1745321;80;21078;-81
2022/08/24 04:46:36;;;;;;;18.05;14.53;;;;;;;18.84;100.00;100887.75;1762218;80;21308;-81
2022/08/24 04:49:03;;;;;;;14.25;12.03;;;;;;;18.85;100.00;100880.66;1764472;80;21118;-81
2022/08/24 04:51:30;;;;;;;14.23;11.73;;;;;;;18.85;100.00;100889.95;1764691;80;21079;-81
2022/08/24 04:53:59;;;;;;;11.35;10.18;;;;;;;18.84;100.00;100895.72;1765035;80;21055;-82
2022/08/24 04:56:26;;;;;;;10.88;9.78;;;;;;;18.84;100.00;100894.39;1744709;80;21106;-82
2022/08/24 04:58:55;;;;;;;10.85;9.75;;;;;;;18.85;100.00;100892.61;1763668;79;21587;-81
2022/08/24 05:01:26;;;;;;;8.58;7.78;;;;;;;18.85;100.00;100892.13;1764087;80;21447;-81
2022/08/24 05:03:55;;;;;;;8.10;7.40;;;;;;;18.88;100.00;100901.71;1765778;80;21266;-80
2022/08/24 05:06:27;;;;;;;8.28;7.58;;;;;;;18.87;100.00;100899.53;1762668;80;21031;-80
2022/08/24 05:08:55;;;;;;;8.03;7.33;;;;;;;18.90;100.00;100898.01;1762583;80;22504;-80
2022/08/24 05:11:23;;;;;;;6.35;4.92;;;;;;;18.94;100.00;100903.48;1760917;80;21133;-80
2022/08/24 05:13:55;;;;;;;4.80;4.40;;;;;;;19.01;100.00;100900.42;1761010;79;21061;-80
2022/08/24 05:16:25;;;;;;;5.03;4.53;;;;;;;19.06;100.00;100893.86;1760818;79;22020;-80
2022/08/24 05:18:54;;;;;;;4.83;4.42;;;;;;;19.14;100.00;100900.86;1762450;79;21039;-80
2022/08/24 05:21:23;;;;;;;5.40;4.90;;;;;;;19.21;100.00;100901.81;1762209;81;21109;-81
2022/08/24 05:23:52;;;;;;;7.17;4.97;;;;;;;19.24;100.00;100901.13;1741383;81;21024;-80
2022/08/24 05:26:24;;;;;;;5.53;5.03;;;;;;;19.29;100.00;100896.86;1761072;80;21015;-80
2022/08/24 05:28:55;;;;;;;6.33;5.05;;;;;;;19.33;100.00;100902.33;1764334;81;21162;-80
2022/08/24 05:31:27;;;;;;;7.25;6.55;;;;;;;19.36;100.00;100897.66;1779506;80;21136;-80
2022/08/24 05:33:54;;;;;;;7.50;6.83;;;;;;;19.37;100.00;100899.38;1762576;80;21110;-80
2022/08/24 05:36:32;;;;;;;9.40;7.45;;;;;;;19.36;100.00;100898.98;1762834;80;21098;-81
2022/08/24 05:39:04;;;;;;;8.65;7.87;;;;;;;19.37;100.00;100890.53;1760870;80;21031;-80
2022/08/24 05:41:33;;;;;;;13.72;10.00;;;;;;;19.39;100.00;100897.45;1747144;80;21592;-81
2022/08/24 05:44:02;;;;;;;11.90;10.70;;;;;;;19.39;100.00;100896.61;1763312;80;21339;-81
2022/08/24 05:46:30;;;;;;;13.13;11.83;;;;;;;19.37;100.00;100897.17;1761809;80;21048;-80
2022/08/24 05:49:00;;;;;;;13.88;11.65;;;;;;;19.37;100.00;100901.16;1760914;79;21529;-80
2022/08/24 05:51:31;;;;;;;13.70;11.33;;;;;;;19.38;100.00;100900.23;1763601;79;21091;-80
2022/08/24 05:54:03;;;;;;;13.58;12.18;;;;;;;19.37;100.00;100901.16;1762794;79;21351;-80
2022/08/24 05:56:32;;;;;;;15.88;12.95;;;;;;;19.39;100.00;100905.91;1758278;79;21489;-80
2022/08/24 05:59:00;;;;;;;14.63;13.00;;;;;;;19.42;100.00;100904.86;1763139;80;21607;-81
2022/08/24 06:01:28;;;;;;;18.07;14.65;;;;;;;19.44;100.00;100913.59;1762366;80;21083;-82
2022/08/24 06:03:57;;;;;;;15.63;13.70;;;;;;;19.46;100.00;100911.21;1761302;80;22613;-81
2022/08/24 06:06:26;;;;;;;19.23;16.20;;;;;;;19.49;100.00;100907.02;1762865;80;21933;-81
2022/08/24 06:08:56;;;;;;;20.97;16.23;;;;;;;19.50;100.00;100905.20;1762409;79;21118;-81
2022/08/24 06:11:31;;;;;;;19.25;16.48;;;;;;;19.50;100.00;100905.20;1742988;80;21524;-81
2022/08/24 06:14:04;;;;;;;20.97;16.10;;;;;;;19.51;100.00;100904.23;1742823;81;22240;-81
2022/08/24 06:16:39;;;;;;;22.85;16.75;;;;;;;19.52;100.00;100905.48;1755589;81;21130;-81
2022/08/24 06:19:08;;;;;;;18.90;16.50;;;;;;;19.52;100.00;100901.49;1754246;80;21552;-81
2022/08/24 06:21:40;;;;;;;20.08;16.42;;;;;;;19.54;100.00;100904.06;1755611;81;21536;-86
2022/08/24 06:24:07;;;;;;;20.25;17.87;;;;;;;19.51;100.00;100900.25;1753395;81;21043;-80
2022/08/24 06:29:21;;;;;;;22.50;18.50;;;;;;;19.55;100.00;100909.74;1760587;81;21313;-80
2022/08/24 06:31:50;;;;;;;23.42;18.37;;;;;;;19.57;100.00;100909.17;1754042;81;21206;-80
2022/08/24 06:34:18;;;;;;;22.87;20.45;;;;;;;19.56;100.00;100904.79;1751730;81;21046;-80
2022/08/24 06:36:46;;;;;;;23.12;19.62;;;;;;;19.57;100.00;100908.69;1757039;81;21641;-79
2022/08/24 06:39:13;;;;;;;24.52;20.85;;;;;;;19.59;100.00;100913.89;1750420;81;21134;-79
2022/08/24 06:41:42;;;;;;;26.87;21.23;;;;;;;19.60;100.00;100914.28;1756618;80;21074;-79
2022/08/24 06:44:11;;;;;;;26.95;21.52;;;;;;;19.60;100.00;100916.46;1755116;81;21112;-87
2022/08/24 06:46:42;;;;;;;26.02;21.02;;;;;;;19.59;100.00;100922.74;1762721;80;21043;-77
2022/08/24 06:49:09;;;;;;;26.15;22.07;;;;;;;19.60;100.00;100919.60;1750779;80;21036;-77
2022/08/24 06:51:37;;;;;;;27.35;22.48;;;;;;;19.61;100.00;100919.97;1750956;81;21054;-77
2022/08/24 06:54:04;;;;;;;28.30;23.32;;;;;;;19.60;100.00;100924.92;1755045;81;20996;-77
2022/08/24 06:56:32;;;;;;;27.73;23.05;;;;;;;19.64;100.00;100925.56;1755442;81;21142;-77
2022/08/24 06:59:02;;;;;;;27.70;22.05;;;;;;;19.69;100.00;100924.81;1757170;81;21036;-78
2022/08/24 07:01:29;;;;;;;25.85;22.20;;;;;;;19.72;100.00;100929.92;1765034;80;21027;-78
2022/08/24 07:03:56;;;;;;;26.35;21.95;;;;;;;19.75;100.00;100927.90;1751079;81;21040;-78
2022/08/24 07:06:44;;;;;;;27.82;22.15;;;;;;;19.78;100.00;100926.36;1749430;81;21040;-77
2022/08/24 07:09:11;;;;;;;26.77;22.20;;;;;;;19.80;100.00;100928.45;1762010;81;21944;-87
2022/08/24 07:11:38;;;;;;;30.77;22.62;;;;;;;19.85;100.00;100931.30;1741032;81;21059;-81
2022/08/24 07:14:05;;;;;;;26.30;22.07;;;;;;;19.88;100.00;100931.93;1760256;80;21062;-88
2022/08/24 07:16:33;;;;;;;24.37;21.35;;;;;;;19.91;100.00;100932.20;1761068;81;21027;-80
2022/08/24 07:19:04;;;;;;;22.27;19.87;;;;;;;19.93;100.00;100934.29;1751465;81;21051;-80
2022/08/24 07:21:31;;;;;;;28.00;20.88;;;;;;;19.93;100.00;100935.13;1751003;81;21115;-80
2022/08/24 07:24:01;;;;;;;24.50;20.08;;;;;;;19.95;100.00;100940.34;1753614;81;21037;-87
2022/08/24 07:26:30;;;;;;;23.47;19.77;;;;;;;19.97;100.00;100943.75;1760745;80;21039;-80
2022/08/24 07:29:05;;;;;;;24.30;20.37;;;;;;;20.00;100.00;100946.20;1757346;81;21702;-84
2022/08/24 07:31:38;;;;;;;26.55;20.80;;;;;;;19.99;100.00;100946.69;1755356;80;20996;-79
2022/08/24 07:34:12;;;;;;;23.52;19.30;;;;;;;19.99;100.00;100944.51;1757454;81;21727;-78
2022/08/24 07:36:40;;;;;;;23.55;19.82;;;;;;;19.98;100.00;100942.78;1757317;81;21043;-79
2022/08/24 07:39:08;;;;;;;22.32;18.60;;;;;;;19.98;100.00;100940.12;1760452;80;21035;-78
2022/08/24 07:41:42;;;;;;;22.02;19.25;;;;;;;20.01;100.00;100948.77;1754101;80;21051;-80
2022/08/24 07:44:11;;;;;;;25.08;20.52;;;;;;;20.04;100.00;100952.55;1762115;81;21006;-78
2022/08/24 07:46:40;;;;;;;24.52;18.42;;;;;;;20.07;100.00;100950.65;1750329;80;21095;-78
2022/08/24 07:49:08;;;;;;;22.60;18.23;;;;;;;20.10;100.00;100951.77;1760963;81;22015;-78
2022/08/24 07:51:35;;;;;;;21.82;17.77;;;;;;;20.11;100.00;100946.32;1754292;81;21047;-77
2022/08/24 07:54:04;;;;;;;19.48;17.35;;;;;;;20.14;100.00;100951.91;1760692;81;21087;-77
2022/08/24 07:56:33;;;;;;;21.77;16.32;;;;;;;20.13;100.00;100955.06;1755128;80;21167;-78
2022/08/24 07:59:02;;;;;;;20.00;16.77;;;;;;;20.13;100.00;100965.70;1759384;80;21135;-77
2022/08/24 08:01:30;;;;;;;20.35;17.45;;;;;;;20.15;100.00;100969.13;1762165;81;21501;-80
2022/08/24 08:03:57;;;;;;;19.85;17.17;;;;;;;20.16;100.00;100972.15;1753566;81;21048;-77
2022/08/24 08:06:24;;;;;;;22.37;18.05;;;;;;;20.15;100.00;100981.10;1764351;80;20924;-76
2022/08/24 08:08:53;;;;;;;21.10;18.02;;;;;;;20.15;100.00;100986.91;1753965;80;21114;-77
2022/08/24 08:11:20;;;;;;;33.73;19.30;;;;;;;20.13;100.00;100989.66;1760351;81;22347;-82
2022/08/24 08:13:48;;;;;;;22.98;20.43;;;;;;;20.11;100.00;100990.23;1753829;80;21016;-83
2022/08/24 08:16:15;;;;;;;26.70;19.85;;;;;;;20.08;100.00;100990.44;1752600;81;21268;-76
2022/08/24 08:18:43;;;;;;;29.70;20.90;;;;;;;20.09;100.00;100987.30;1762220;81;20981;-75
2022/08/24 08:24:16;;;;;;;23.47;20.90;;;;;;;20.08;100.00;100990.92;1754314;81;21353;-75
2022/08/24 08:26:53;;;;;;;28.23;20.82;;;;;;;20.06;100.00;100989.69;1757227;81;21460;-75
2022/08/24 08:29:19;;;;;;;31.90;22.48;;;;;;;20.06;100.00;100997.67;1759619;81;21055;-75
2022/08/24 08:31:47;;;;;;;27.20;21.10;;;;;;;20.07;100.00;100990.08;1754330;80;21059;-77
2022/08/24 08:34:15;;;;;;;23.25;20.70;;;;;;;20.07;100.00;100991.89;1754322;81;21078;-78
2022/08/24 08:36:48;;;;;;;26.95;20.17;;;;;;;20.08;100.00;100994.92;1757025;81;21245;-93
2022/08/24 08:39:20;;;;;;;24.90;21.52;;;;;;;20.11;100.00;100992.05;1760773;81;21494;-77
2022/08/24 08:42:31;;;;;;;29.92;20.55;;;;;;;20.13;100.00;100989.66;1736561;81;21026;-77
2022/08/24 08:45:42;;;;;;;26.10;21.85;;;;;;;20.20;100.00;100988.30;1754598;81;20969;-76
2022/08/24 08:48:59;;;;;;;26.95;21.33;;;;;;;20.34;100.00;100995.34;1737722;81;21620;-76
2022/08/24 08:51:50;;;;;;;25.52;20.77;;;;;;;20.47;100.00;100986.02;1737617;81;21933;-76
2022/08/24 08:54:52;;;;;;;26.77;22.25;;;;;;;20.60;100.00;100987.39;1735555;81;21024;-76
2022/08/24 08:57:47;;;;;;;32.10;25.12;;;;;;;20.69;100.00;100991.58;1735718;81;21129;-76
2022/08/24 09:00:21;;;;;;;28.38;23.75;;;;;;;20.78;100.00;100994.06;1764255;80;21051;-76
2022/08/24 09:03:22;;;;;;;35.78;24.60;;;;;;;20.78;100.00;100998.06;1736063;81;21031;-76
2022/08/24 09:06:16;;;;;;;27.30;22.93;;;;;;;20.81;100.00;100997.00;1690936;81;21158;-76
2022/08/24 09:09:14;;;;;;;30.20;24.18;;;;;;;20.88;100.00;100999.13;1736160;81;21048;-76
2022/08/24 09:12:13;;;;;;;31.80;25.25;;;;;;;20.91;100.00;101000.73;1754388;81;20984;-77
2022/08/24 09:15:15;;;;;;;24.80;22.05;;;;;;;20.85;100.00;100999.35;1754055;80;21095;-77
2022/08/24 09:18:00;;;;;;;25.02;21.55;;;;;;;20.83;100.00;100997.27;1737162;81;21256;-77
2022/08/24 09:20:50;;;;;;;27.65;20.85;;;;;;;20.85;100.00;100994.51;1734808;81;21128;-77
2022/08/24 09:23:59;;;;;;;24.67;21.52;;;;;;;20.87;100.00;100994.77;1742639;81;21049;-77
2022/08/24 09:26:32;;;;;;;28.65;22.87;;;;;;;20.89;100.00;100994.65;1737677;81;21507;-78
2022/08/24 09:29:16;;;;;;;25.72;23.02;;;;;;;20.92;100.00;100999.75;1753410;81;21010;-78
2022/08/24 09:32:11;;;;;;;29.30;23.20;;;;;;;20.93;100.00;100993.48;1735854;81;21031;-78
2022/08/24 09:35:02;;;;;;;32.23;26.57;;;;;;;20.93;100.00;100998.33;1735892;81;21137;-79
2022/08/24 09:37:58;;;;;;;35.90;27.50;;;;;;;20.92;100.00;101002.42;1735715;81;21008;-78
2022/08/24 09:40:37;;;;;;;31.87;24.87;;;;;;;20.87;100.00;100994.77;1737446;81;21032;-82
2022/08/24 09:43:24;;;;;;;31.25;25.08;;;;;;;20.82;100.00;101000.06;1736022;81;21066;-78
2022/08/24 09:46:28;;;;;;;30.77;25.77;;;;;;;20.80;100.00;101007.30;1736973;81;21644;-79
2022/08/24 09:49:03;;;;;;;39.67;26.77;;;;;;;20.75;100.00;101011.61;1737636;81;21177;-80
2022/08/24 09:52:13;;;;;;;33.15;26.68;;;;;;;20.74;100.00;101013.91;1735478;81;21005;-79
2022/08/24 09:55:37;;;;;;;34.18;28.15;;;;;;;20.71;100.00;101014.97;1736394;81;21043;-78
2022/08/24 09:58:27;;;;;;;37.05;26.42;;;;;;;20.71;100.00;101008.31;1735822;81;21032;-78
2022/08/24 10:01:17;;;;;;;35.80;25.82;;;;;;;20.72;100.00;101010.00;1756175;81;21040;-77
2022/08/24 10:04:19;;;;;;;33.45;25.35;;;;;;;20.73;100.00;101013.55;1735634;81;21822;-77
2022/08/24 10:07:19;;;;;;;32.95;25.50;;;;;;;20.71;100.00;101017.64;1647070;85;21081;-78
2022/08/24 10:10:18;;;;;;;32.85;24.32;;;;;;;20.68;100.00;101019.19;1751732;80;21540;-77
2022/08/24 10:12:58;;;;;;;;;;;;;;;20.65;100.00;101020.73;1738975;81;21036;-78
2022/08/24 10:15:35;;;;;;;;;;;;;;;20.66;100.00;101015.77;1738572;81;21155;-76
2022/08/24 10:18:22;;;;;;;29.67;22.32;;;;;;;20.69;100.00;101020.03;1736022;81;21107;-78
2022/08/24 10:21:14;;;;;;;27.25;21.93;;;;;;;20.72;100.00;101023.81;1735172;81;21063;-78
2022/08/24 10:24:26;;;;;;;28.38;21.33;;;;;;;20.78;100.00;101020.71;1735777;81;21099;-77
2022/08/24 10:27:17;;;;;;;26.12;22.00;;;;;;;20.83;100.00;101019.91;1736480;81;21135;-77
2022/08/24 10:30:05;;;;;;;26.87;21.87;;;;;;;20.91;100.00;101011.39;1734704;81;21302;-77
2022/08/24 10:33:13;;;;;;;27.50;20.15;;;;;;;21.01;100.00;101019.11;1735971;81;21295;-78
2022/08/24 10:36:08;;;;;;;23.97;20.83;;;;;;;21.11;100.00;101009.97;1757873;81;20996;-77
2022/08/24 10:43:32;;;;;;;24.18;19.67;;;;;;;21.32;100.00;101004.91;1748269;81;21083;-78
2022/08/24 10:44:51;;;;;;;22.27;18.55;;;;;;;21.45;100.00;101007.55;1737860;81;21517;-77
2022/08/24 10:47:29;;;;;;;25.97;20.10;;;;;;;21.56;100.00;101002.28;1735983;81;22256;-77
2022/08/24 10:50:29;;;;;;;23.70;19.40;;;;;;;21.67;100.00;101001.48;1766589;81;21036;-77
2022/08/24 10:53:22;;;;;;;22.48;18.50;;;;;;;21.75;100.00;101010.63;1743541;80;20983;-77
2022/08/24 10:56:10;;;;;;;22.90;17.52;;;;;;;21.80;100.00;100999.13;1735356;81;21036;-78
2022/08/24 10:58:58;;;;;;;23.73;18.27;;;;;;;21.84;100.00;101003.77;1752395;81;21044;-78
2022/08/24 11:01:35;;;;;;;23.67;18.50;;;;;;;21.86;100.00;101012.98;1759961;81;21210;-77
2022/08/24 11:04:10;;;;;;;22.73;18.27;;;;;;;21.85;100.00;101013.47;1737793;80;20997;-77
2022/08/24 11:06:42;;;;;;;20.80;18.60;;;;;;;21.83;100.00;101013.57;1736152;81;21033;-77
2022/08/24 11:09:14;;;;;;;22.80;19.42;;;;;;;21.82;100.00;101021.22;1741162;81;21084;-77
2022/08/24 11:11:45;;;;;;;25.00;20.25;;;;;;;21.83;100.00;101022.91;1736740;81;21439;-77
2022/08/24 11:14:27;;;;;;;26.30;18.60;;;;;;;21.83;100.00;101023.41;1735732;81;21123;-77
2022/08/24 11:17:19;;;;;;;22.15;17.32;;;;;;;21.86;100.00;101020.98;1741513;80;20983;-78
2022/08/24 11:19:49;;;;;;;20.65;17.73;;;;;;;21.89;100.00;101023.42;1737527;81;21487;-78
2022/08/24 11:22:29;;;;;;;20.23;17.60;;;;;;;;;;1738285;81;21094;-78
2022/08/24 11:25:06;;;;;;;21.42;17.15;;;;;;;;;;1753833;80;21032;-78
2022/08/24 11:27:46;;;;;;;21.42;17.67;;;;;;;21.86;100.00;101024.50;1736113;81;21133;-78
2022/08/24 11:30:16;;;;;;;20.62;17.57;;;;;;;;;;1737432;81;21052;-78
2022/08/24 11:32:48;;;;;;;20.55;18.25;;;;;;;21.90;100.00;101033.16;1732169;81;21035;-78
2022/08/24 11:35:36;;;;;;;19.12;17.17;;;;;;;21.90;100.00;101038.50;1757219;80;21559;-77
2022/08/24 11:38:26;;;;;;;19.27;16.42;;;;;;;21.89;100.00;101034.95;1788831;80;21076;-77
2022/08/24 11:41:11;;;;;;;23.12;18.25;;;;;;;21.89;100.00;101040.28;1779363;80;21103;-77
2022/08/24 11:44:14;;;;;;;20.82;17.87;;;;;;;21.87;100.00;101036.91;1748086;80;21464;-77
2022/08/24 11:46:53;;;;;;;19.57;17.40;;;;;;;21.85;100.00;101043.31;1741915;82;21068;-78
2022/08/24 11:49:28;;;;;;;22.22;18.27;;;;;;;21.82;100.00;101051.91;1768180;80;21543;-78